Wirt, MN (56688)

11:58 PM CDT on August 02, 2015 (GMT -0500)
Bigfork Municipal | | Change Station
CLOSE
Current Station
Airport
Location: Bigfork,
Elevation: 1348 ft
Nearby Weather Stations

Elev 1348 ft 47.78 °N, 93.65 °W | Updated 5 minutes ago

Clear
Clear
55 °F
Feels Like 55 °F
N
0
Wind Variable Wind from North

Today
High -- | Low -- °F
--% Chance of Precip.
Yesterday
High -- | Low -- °F
Precip. -- in
5:53 AM 8:49 PM
Waning Gibbous, 89% visible
Pressure 29.79 in
Visibility 10.0 miles
Clouds Clear
Dew Point 45 °F
Humidity 67%
Rainfall 0.43 in
Snow Depth Not available.
UV 0 out of 12
Pollen 7.50 out of 12
Air Quality Not available.
Flu Activity Not available.
METAR KFOZ 030453Z AUTO 00000KT 10SM CLR 13/07 A2979 RMK AO2

More Conditions Fewer Conditions

Pressure 29.79 in
Visibility 10.0 miles
Clouds Clear
Dew Point 45 °F
Humidity 67%
Rainfall 0.43 in
Snow Depth Not available.
UV 0 out of 12
Pollen 7.50 out of 12
Air Quality Not available.
Flu Activity Not available.
METAR KFOZ 030453Z AUTO 00000KT 10SM CLR 13/07 A2979 RMK AO2

More Conditions Fewer Conditions

10-Day Weather Forecast

×

Almanac

Astronomy

Aug. 02, 2015 Rise Set
Actual Time
Civil Twilight
Nautical Twilight
Astronomical Twilight
Moon
Length of Visible Light
Length of Day
Tomorrow will be .
, % of the Moon is Illuminated

Today's Extremes

State Highs State Lows

Community

WunderPhotos

Upload Photos

1,843,583 photos uploaded!

WunderBlogs® & News

Nearby

Air Quality

  Air Quality AQ Index Pollutant
Not available.

Snow Depth

Station Depth Elevation

Earthquake Activity

City Distance Mag. Time & Date
Minimum magnitude displayed is 2.5.

Coastal Water Temperatures

Place Temperature

Stations

Nearby Weather Stations

Station Location Temp. Windchill Dew Point Humidity Wind Precip. Elev Updated Type